sensor_id;sensor_type;location;lat;lon;timestamp;P1;durP1;ratioP1;P2;durP2;ratioP2
53674;SDS011;39574;50.534;8.500;2024-01-16T00:02:47;12.8;;;4.3;;
53674;SDS011;39574;50.534;8.500;2024-01-16T00:07:46;11.6;;;4.2;;
53674;SDS011;39574;50.534;8.500;2024-01-16T00:12:44;10.7;;;4.2;;
53674;SDS011;39574;50.534;8.500;2024-01-16T00:17:43;10.4;;;4.1;;
53674;SDS011;39574;50.534;8.500;2024-01-16T00:22:41;10.6;;;4.4;;
53674;SDS011;39574;50.534;8.500;2024-01-16T00:27:40;11.2;;;4.3;;
53674;SDS011;39574;50.534;8.500;2024-01-16T00:32:39;12.8;;;4.5;;
53674;SDS011;39574;50.534;8.500;2024-01-16T00:37:38;12.9;;;4.5;;
53674;SDS011;39574;50.534;8.500;2024-01-16T00:42:36;14.1;;;4.7;;
53674;SDS011;39574;50.534;8.500;2024-01-16T00:47:34;13.5;;;4.6;;
53674;SDS011;39574;50.534;8.500;2024-01-16T00:52:33;11.8;;;4.5;;
53674;SDS011;39574;50.534;8.500;2024-01-16T00:57:32;10.9;;;4.3;;
53674;SDS011;39574;50.534;8.500;2024-01-16T01:02:31;10.2;;;4.3;;
53674;SDS011;39574;50.534;8.500;2024-01-16T01:07:29;9.0;;;4.1;;
53674;SDS011;39574;50.534;8.500;2024-01-16T01:12:28;9.4;;;4.2;;
53674;SDS011;39574;50.534;8.500;2024-01-16T01:17:31;9.3;;;4.2;;
53674;SDS011;39574;50.534;8.500;2024-01-16T01:22:25;9.7;;;4.1;;
53674;SDS011;39574;50.534;8.500;2024-01-16T01:27:24;9.2;;;4.1;;
53674;SDS011;39574;50.534;8.500;2024-01-16T01:32:23;10.0;;;4.2;;
53674;SDS011;39574;50.534;8.500;2024-01-16T01:37:25;10.0;;;4.2;;
53674;SDS011;39574;50.534;8.500;2024-01-16T01:42:19;10.5;;;4.3;;
53674;SDS011;39574;50.534;8.500;2024-01-16T01:47:19;11.0;;;4.4;;
53674;SDS011;39574;50.534;8.500;2024-01-16T01:52:21;11.2;;;4.5;;
53674;SDS011;39574;50.534;8.500;2024-01-16T01:57:16;11.6;;;4.7;;
53674;SDS011;39574;50.534;8.500;2024-01-16T02:02:14;11.2;;;4.8;;
53674;SDS011;39574;50.534;8.500;2024-01-16T02:07:12;10.4;;;4.7;;
53674;SDS011;39574;50.534;8.500;2024-01-16T02:12:11;11.1;;;4.7;;
53674;SDS011;39574;50.534;8.500;2024-01-16T02:17:10;11.0;;;4.5;;
53674;SDS011;39574;50.534;8.500;2024-01-16T02:22:09;12.1;;;4.6;;
53674;SDS011;39574;50.534;8.500;2024-01-16T02:27:08;11.8;;;4.6;;
53674;SDS011;39574;50.534;8.500;2024-01-16T02:32:06;12.3;;;4.6;;
53674;SDS011;39574;50.534;8.500;2024-01-16T02:37:05;12.5;;;4.7;;
53674;SDS011;39574;50.534;8.500;2024-01-16T02:42:03;11.8;;;4.8;;
53674;SDS011;39574;50.534;8.500;2024-01-16T02:47:02;11.9;;;4.9;;
53674;SDS011;39574;50.534;8.500;2024-01-16T02:52:00;13.9;;;5.2;;
53674;SDS011;39574;50.534;8.500;2024-01-16T02:57:00;13.2;;;5.2;;
53674;SDS011;39574;50.534;8.500;2024-01-16T03:01:58;14.2;;;5.3;;
53674;SDS011;39574;50.534;8.500;2024-01-16T03:06:56;13.6;;;5.4;;
53674;SDS011;39574;50.534;8.500;2024-01-16T03:11:55;13.1;;;5.6;;
53674;SDS011;39574;50.534;8.500;2024-01-16T03:16:54;12.2;;;5.4;;
53674;SDS011;39574;50.534;8.500;2024-01-16T03:21:52;11.6;;;5.3;;
53674;SDS011;39574;50.534;8.500;2024-01-16T03:26:51;11.7;;;5.4;;
53674;SDS011;39574;50.534;8.500;2024-01-16T03:31:49;12.1;;;5.5;;
53674;SDS011;39574;50.534;8.500;2024-01-16T03:36:48;12.8;;;5.8;;
53674;SDS011;39574;50.534;8.500;2024-01-16T03:41:47;14.3;;;6.1;;
53674;SDS011;39574;50.534;8.500;2024-01-16T03:46:46;15.1;;;6.4;;
53674;SDS011;39574;50.534;8.500;2024-01-16T03:51:44;16.1;;;6.8;;
53674;SDS011;39574;50.534;8.500;2024-01-16T03:56:43;15.1;;;6.9;;
53674;SDS011;39574;50.534;8.500;2024-01-16T04:01:41;14.9;;;7.5;;
53674;SDS011;39574;50.534;8.500;2024-01-16T04:06:41;14.2;;;7.3;;
53674;SDS011;39574;50.534;8.500;2024-01-16T04:11:39;14.8;;;7.1;;
53674;SDS011;39574;50.534;8.500;2024-01-16T04:21:36;16.9;;;7.1;;
53674;SDS011;39574;50.534;8.500;2024-01-16T04:26:35;18.1;;;7.6;;
53674;SDS011;39574;50.534;8.500;2024-01-16T04:31:38;17.0;;;7.5;;
53674;SDS011;39574;50.534;8.500;2024-01-16T04:36:36;16.5;;;7.1;;
53674;SDS011;39574;50.534;8.500;2024-01-16T04:41:31;16.9;;;7.8;;
53674;SDS011;39574;50.534;8.500;2024-01-16T04:46:29;16.7;;;7.6;;
53674;SDS011;39574;50.534;8.500;2024-01-16T04:51:28;16.8;;;7.9;;
53674;SDS011;39574;50.534;8.500;2024-01-16T04:56:27;14.8;;;7.2;;
53674;SDS011;39574;50.534;8.500;2024-01-16T05:01:25;14.2;;;6.7;;
53674;SDS011;39574;50.534;8.500;2024-01-16T05:06:24;15.0;;;6.5;;
53674;SDS011;39574;50.534;8.500;2024-01-16T05:11:22;15.3;;;6.6;;
53674;SDS011;39574;50.534;8.500;2024-01-16T05:16:21;15.4;;;6.7;;
53674;SDS011;39574;50.534;8.500;2024-01-16T05:21:20;14.4;;;6.6;;
53674;SDS011;39574;50.534;8.500;2024-01-16T05:26:18;14.4;;;6.4;;
53674;SDS011;39574;50.534;8.500;2024-01-16T05:31:17;14.2;;;6.5;;
53674;SDS011;39574;50.534;8.500;2024-01-16T05:36:16;14.2;;;6.7;;
53674;SDS011;39574;50.534;8.500;2024-01-16T05:41:14;15.1;;;7.0;;
53674;SDS011;39574;50.534;8.500;2024-01-16T05:46:13;15.0;;;7.0;;
53674;SDS011;39574;50.534;8.500;2024-01-16T05:51:12;15.4;;;7.0;;
53674;SDS011;39574;50.534;8.500;2024-01-16T05:56:11;16.4;;;7.1;;
53674;SDS011;39574;50.534;8.500;2024-01-16T06:11:06;17.5;;;9.0;;
53674;SDS011;39574;50.534;8.500;2024-01-16T06:16:05;18.3;;;8.8;;
53674;SDS011;39574;50.534;8.500;2024-01-16T06:21:03;18.2;;;8.5;;
53674;SDS011;39574;50.534;8.500;2024-01-16T06:26:02;16.9;;;7.8;;
53674;SDS011;39574;50.534;8.500;2024-01-16T06:31:00;15.3;;;7.5;;
53674;SDS011;39574;50.534;8.500;2024-01-16T06:35:59;16.4;;;7.2;;
53674;SDS011;39574;50.534;8.500;2024-01-16T06:40:58;16.9;;;7.0;;
53674;SDS011;39574;50.534;8.500;2024-01-16T06:45:57;15.5;;;6.8;;
53674;SDS011;39574;50.534;8.500;2024-01-16T06:50:55;15.4;;;6.9;;
53674;SDS011;39574;50.534;8.500;2024-01-16T06:55:53;17.8;;;6.8;;
53674;SDS011;39574;50.534;8.500;2024-01-16T07:00:52;17.8;;;7.0;;
53674;SDS011;39574;50.534;8.500;2024-01-16T07:05:50;16.6;;;6.8;;
53674;SDS011;39574;50.534;8.500;2024-01-16T07:10:49;15.8;;;6.8;;
53674;SDS011;39574;50.534;8.500;2024-01-16T07:15:49;16.1;;;7.1;;
53674;SDS011;39574;50.534;8.500;2024-01-16T07:20:46;16.8;;;6.8;;
53674;SDS011;39574;50.534;8.500;2024-01-16T07:25:45;17.6;;;7.0;;
53674;SDS011;39574;50.534;8.500;2024-01-16T07:30:45;19.0;;;6.9;;
53674;SDS011;39574;50.534;8.500;2024-01-16T07:35:43;19.1;;;6.9;;
53674;SDS011;39574;50.534;8.500;2024-01-16T07:40:41;17.0;;;6.7;;
53674;SDS011;39574;50.534;8.500;2024-01-16T07:45:39;15.1;;;6.6;;
53674;SDS011;39574;50.534;8.500;2024-01-16T07:50:38;14.8;;;6.8;;
53674;SDS011;39574;50.534;8.500;2024-01-16T07:55:37;14.6;;;6.7;;
53674;SDS011;39574;50.534;8.500;2024-01-16T08:00:35;15.5;;;7.0;;
53674;SDS011;39574;50.534;8.500;2024-01-16T08:05:34;16.0;;;6.9;;
53674;SDS011;39574;50.534;8.500;2024-01-16T08:10:32;15.8;;;6.5;;
53674;SDS011;39574;50.534;8.500;2024-01-16T08:15:31;15.8;;;6.6;;
53674;SDS011;39574;50.534;8.500;2024-01-16T08:20:29;15.7;;;6.7;;
53674;SDS011;39574;50.534;8.500;2024-01-16T08:25:28;15.3;;;6.8;;
53674;SDS011;39574;50.534;8.500;2024-01-16T08:30:27;15.3;;;6.7;;
53674;SDS011;39574;50.534;8.500;2024-01-16T08:35:25;16.2;;;6.7;;
53674;SDS011;39574;50.534;8.500;2024-01-16T08:40:24;15.9;;;6.6;;
53674;SDS011;39574;50.534;8.500;2024-01-16T08:50:22;16.2;;;6.7;;
53674;SDS011;39574;50.534;8.500;2024-01-16T08:55:20;21.2;;;8.0;;
53674;SDS011;39574;50.534;8.500;2024-01-16T09:00:18;20.4;;;8.1;;
53674;SDS011;39574;50.534;8.500;2024-01-16T09:05:17;18.1;;;7.5;;
53674;SDS011;39574;50.534;8.500;2024-01-16T09:10:15;16.9;;;7.3;;
53674;SDS011;39574;50.534;8.500;2024-01-16T09:15:14;15.8;;;7.3;;
53674;SDS011;39574;50.534;8.500;2024-01-16T09:20:12;16.1;;;7.2;;
53674;SDS011;39574;50.534;8.500;2024-01-16T09:25:12;16.1;;;7.2;;
53674;SDS011;39574;50.534;8.500;2024-01-16T09:30:15;13.8;;;6.6;;
53674;SDS011;39574;50.534;8.500;2024-01-16T09:35:09;11.7;;;6.0;;
53674;SDS011;39574;50.534;8.500;2024-01-16T09:40:07;12.0;;;6.1;;
53674;SDS011;39574;50.534;8.500;2024-01-16T09:45:07;12.3;;;6.2;;
53674;SDS011;39574;50.534;8.500;2024-01-16T09:50:05;14.3;;;7.2;;
53674;SDS011;39574;50.534;8.500;2024-01-16T09:55:04;15.5;;;7.6;;
53674;SDS011;39574;50.534;8.500;2024-01-16T10:00:07;15.9;;;7.4;;
53674;SDS011;39574;50.534;8.500;2024-01-16T10:05:00;15.1;;;7.1;;
53674;SDS011;39574;50.534;8.500;2024-01-16T10:10:00;16.2;;;6.6;;
53674;SDS011;39574;50.534;8.500;2024-01-16T10:14:58;15.2;;;6.2;;
53674;SDS011;39574;50.534;8.500;2024-01-16T10:25:11;14.9;;;6.2;;
53674;SDS011;39574;50.534;8.500;2024-01-16T10:29:54;14.2;;;6.1;;
53674;SDS011;39574;50.534;8.500;2024-01-16T10:35:00;13.5;;;6.1;;
53674;SDS011;39574;50.534;8.500;2024-01-16T10:39:51;13.3;;;6.0;;
53674;SDS011;39574;50.534;8.500;2024-01-16T10:44:53;12.3;;;5.8;;
53674;SDS011;39574;50.534;8.500;2024-01-16T10:49:48;14.0;;;5.7;;
53674;SDS011;39574;50.534;8.500;2024-01-16T10:54:47;14.8;;;5.7;;
53674;SDS011;39574;50.534;8.500;2024-01-16T10:59:48;14.1;;;5.7;;
53674;SDS011;39574;50.534;8.500;2024-01-16T11:04:44;13.8;;;5.5;;
53674;SDS011;39574;50.534;8.500;2024-01-16T11:09:42;12.8;;;5.4;;
53674;SDS011;39574;50.534;8.500;2024-01-16T11:14:41;12.2;;;5.2;;
53674;SDS011;39574;50.534;8.500;2024-01-16T11:19:40;12.6;;;5.5;;
53674;SDS011;39574;50.534;8.500;2024-01-16T11:24:38;11.6;;;5.4;;
53674;SDS011;39574;50.534;8.500;2024-01-16T11:29:38;11.1;;;5.5;;
53674;SDS011;39574;50.534;8.500;2024-01-16T11:34:53;10.1;;;5.2;;
53674;SDS011;39574;50.534;8.500;2024-01-16T11:39:35;10.7;;;5.1;;
53674;SDS011;39574;50.534;8.500;2024-01-16T11:44:36;10.6;;;5.1;;
53674;SDS011;39574;50.534;8.500;2024-01-16T11:49:32;11.6;;;5.0;;
53674;SDS011;39574;50.534;8.500;2024-01-16T11:54:30;12.3;;;5.0;;
53674;SDS011;39574;50.534;8.500;2024-01-16T12:00:03;12.3;;;4.8;;
53674;SDS011;39574;50.534;8.500;2024-01-16T12:04:28;11.2;;;4.8;;
53674;SDS011;39574;50.534;8.500;2024-01-16T12:09:28;11.1;;;4.7;;
53674;SDS011;39574;50.534;8.500;2024-01-16T12:14:26;11.2;;;4.8;;
53674;SDS011;39574;50.534;8.500;2024-01-16T12:19:25;12.6;;;5.0;;
53674;SDS011;39574;50.534;8.500;2024-01-16T12:24:22;11.3;;;4.9;;
53674;SDS011;39574;50.534;8.500;2024-01-16T12:29:21;11.3;;;4.8;;
53674;SDS011;39574;50.534;8.500;2024-01-16T12:34:21;11.0;;;4.5;;
53674;SDS011;39574;50.534;8.500;2024-01-16T12:39:18;10.4;;;4.4;;
53674;SDS011;39574;50.534;8.500;2024-01-16T12:44:18;11.3;;;4.2;;
53674;SDS011;39574;50.534;8.500;2024-01-16T12:49:16;11.8;;;4.4;;
53674;SDS011;39574;50.534;8.500;2024-01-16T12:54:16;11.7;;;4.5;;
53674;SDS011;39574;50.534;8.500;2024-01-16T12:59:18;11.2;;;4.3;;
53674;SDS011;39574;50.534;8.500;2024-01-16T13:04:13;12.5;;;5.7;;
53674;SDS011;39574;50.534;8.500;2024-01-16T13:09:11;12.0;;;5.4;;
53674;SDS011;39574;50.534;8.500;2024-01-16T13:14:09;11.7;;;5.1;;
53674;SDS011;39574;50.534;8.500;2024-01-16T13:19:08;10.8;;;4.4;;
53674;SDS011;39574;50.534;8.500;2024-01-16T13:24:07;10.4;;;3.9;;
53674;SDS011;39574;50.534;8.500;2024-01-16T13:29:05;9.2;;;3.8;;
53674;SDS011;39574;50.534;8.500;2024-01-16T13:34:04;9.5;;;3.8;;
53674;SDS011;39574;50.534;8.500;2024-01-16T13:39:03;10.3;;;3.9;;
53674;SDS011;39574;50.534;8.500;2024-01-16T13:44:02;10.1;;;4.0;;
53674;SDS011;39574;50.534;8.500;2024-01-16T13:49:00;10.9;;;4.3;;
53674;SDS011;39574;50.534;8.500;2024-01-16T13:53:59;11.6;;;4.9;;
53674;SDS011;39574;50.534;8.500;2024-01-16T13:58:58;12.4;;;5.9;;
53674;SDS011;39574;50.534;8.500;2024-01-16T14:03:57;11.1;;;5.2;;
53674;SDS011;39574;50.534;8.500;2024-01-16T14:09:00;12.7;;;5.5;;
53674;SDS011;39574;50.534;8.500;2024-01-16T14:13:55;14.6;;;6.2;;
53674;SDS011;39574;50.534;8.500;2024-01-16T14:18:53;15.4;;;6.4;;
53674;SDS011;39574;50.534;8.500;2024-01-16T14:23:52;14.6;;;6.4;;
53674;SDS011;39574;50.534;8.500;2024-01-16T14:28:54;14.6;;;5.7;;
53674;SDS011;39574;50.534;8.500;2024-01-16T14:33:49;12.3;;;5.2;;
53674;SDS011;39574;50.534;8.500;2024-01-16T14:38:48;12.4;;;5.1;;
53674;SDS011;39574;50.534;8.500;2024-01-16T14:43:47;12.7;;;4.8;;
53674;SDS011;39574;50.534;8.500;2024-01-16T14:48:46;12.0;;;4.6;;
53674;SDS011;39574;50.534;8.500;2024-01-16T14:53:45;12.2;;;4.7;;
53674;SDS011;39574;50.534;8.500;2024-01-16T14:58:43;11.7;;;4.7;;
53674;SDS011;39574;50.534;8.500;2024-01-16T15:03:42;11.5;;;4.6;;
53674;SDS011;39574;50.534;8.500;2024-01-16T15:08:41;10.6;;;4.3;;
53674;SDS011;39574;50.534;8.500;2024-01-16T15:13:40;10.2;;;4.2;;
53674;SDS011;39574;50.534;8.500;2024-01-16T15:18:38;10.0;;;4.2;;
53674;SDS011;39574;50.534;8.500;2024-01-16T15:23:36;10.8;;;4.4;;
53674;SDS011;39574;50.534;8.500;2024-01-16T15:28:36;11.0;;;4.5;;
53674;SDS011;39574;50.534;8.500;2024-01-16T15:33:35;10.5;;;4.6;;
53674;SDS011;39574;50.534;8.500;2024-01-16T15:38:33;11.2;;;5.0;;
53674;SDS011;39574;50.534;8.500;2024-01-16T15:43:31;10.2;;;4.9;;
53674;SDS011;39574;50.534;8.500;2024-01-16T15:48:30;12.6;;;6.1;;
53674;SDS011;39574;50.534;8.500;2024-01-16T15:53:28;12.3;;;6.1;;
53674;SDS011;39574;50.534;8.500;2024-01-16T15:58:28;14.2;;;7.0;;
53674;SDS011;39574;50.534;8.500;2024-01-16T16:03:27;12.5;;;5.8;;
53674;SDS011;39574;50.534;8.500;2024-01-16T16:08:25;10.6;;;4.8;;
53674;SDS011;39574;50.534;8.500;2024-01-16T16:13:24;9.6;;;4.2;;
53674;SDS011;39574;50.534;8.500;2024-01-16T16:18:22;13.6;;;6.3;;
53674;SDS011;39574;50.534;8.500;2024-01-16T16:23:21;21.6;;;10.7;;
53674;SDS011;39574;50.534;8.500;2024-01-16T16:33:18;23.6;;;11.5;;
53674;SDS011;39574;50.534;8.500;2024-01-16T16:38:17;24.0;;;12.2;;
53674;SDS011;39574;50.534;8.500;2024-01-16T16:43:15;21.7;;;11.2;;
53674;SDS011;39574;50.534;8.500;2024-01-16T16:48:14;19.2;;;9.7;;
53674;SDS011;39574;50.534;8.500;2024-01-16T16:53:13;17.4;;;9.0;;
53674;SDS011;39574;50.534;8.500;2024-01-16T16:58:11;15.3;;;7.3;;
53674;SDS011;39574;50.534;8.500;2024-01-16T17:08:09;15.3;;;7.5;;
53674;SDS011;39574;50.534;8.500;2024-01-16T17:13:07;17.3;;;9.1;;
53674;SDS011;39574;50.534;8.500;2024-01-16T17:18:06;25.7;;;13.2;;
53674;SDS011;39574;50.534;8.500;2024-01-16T17:28:03;34.1;;;17.2;;
53674;SDS011;39574;50.534;8.500;2024-01-16T17:33:02;34.5;;;17.9;;
53674;SDS011;39574;50.534;8.500;2024-01-16T17:38:01;31.1;;;15.8;;
53674;SDS011;39574;50.534;8.500;2024-01-16T17:42:59;26.7;;;13.8;;
53674;SDS011;39574;50.534;8.500;2024-01-16T17:47:58;22.4;;;12.1;;
53674;SDS011;39574;50.534;8.500;2024-01-16T17:57:55;30.8;;;17.0;;
53674;SDS011;39574;50.534;8.500;2024-01-16T18:02:53;29.9;;;15.4;;
53674;SDS011;39574;50.534;8.500;2024-01-16T18:07:52;25.4;;;12.7;;
53674;SDS011;39574;50.534;8.500;2024-01-16T18:12:51;21.8;;;11.3;;
53674;SDS011;39574;50.534;8.500;2024-01-16T18:17:50;19.2;;;9.8;;
53674;SDS011;39574;50.534;8.500;2024-01-16T18:22:52;18.6;;;9.4;;
53674;SDS011;39574;50.534;8.500;2024-01-16T18:27:47;20.8;;;9.6;;
53674;SDS011;39574;50.534;8.500;2024-01-16T18:32:46;23.5;;;10.4;;
53674;SDS011;39574;50.534;8.500;2024-01-16T18:37:44;28.8;;;13.3;;
53674;SDS011;39574;50.534;8.500;2024-01-16T18:42:42;31.3;;;14.8;;
53674;SDS011;39574;50.534;8.500;2024-01-16T18:47:42;29.4;;;14.1;;
53674;SDS011;39574;50.534;8.500;2024-01-16T18:52:40;31.3;;;15.2;;
53674;SDS011;39574;50.534;8.500;2024-01-16T18:57:39;31.9;;;15.7;;
53674;SDS011;39574;50.534;8.500;2024-01-16T19:02:37;27.1;;;13.4;;
53674;SDS011;39574;50.534;8.500;2024-01-16T19:07:36;24.5;;;11.9;;
53674;SDS011;39574;50.534;8.500;2024-01-16T19:12:39;22.3;;;10.9;;
53674;SDS011;39574;50.534;8.500;2024-01-16T19:17:33;20.8;;;10.6;;
53674;SDS011;39574;50.534;8.500;2024-01-16T19:22:31;24.6;;;12.1;;
53674;SDS011;39574;50.534;8.500;2024-01-16T19:27:30;26.1;;;13.3;;
53674;SDS011;39574;50.534;8.500;2024-01-16T19:37:28;27.5;;;13.7;;
53674;SDS011;39574;50.534;8.500;2024-01-16T19:42:26;29.1;;;15.2;;
53674;SDS011;39574;50.534;8.500;2024-01-16T19:47:24;30.0;;;16.5;;
53674;SDS011;39574;50.534;8.500;2024-01-16T19:52:23;28.6;;;15.8;;
53674;SDS011;39574;50.534;8.500;2024-01-16T19:57:21;28.1;;;15.6;;
53674;SDS011;39574;50.534;8.500;2024-01-16T20:02:19;28.3;;;15.6;;
53674;SDS011;39574;50.534;8.500;2024-01-16T20:07:18;29.6;;;16.3;;
53674;SDS011;39574;50.534;8.500;2024-01-16T20:12:17;32.8;;;18.3;;
53674;SDS011;39574;50.534;8.500;2024-01-16T20:17:20;37.7;;;20.2;;
53674;SDS011;39574;50.534;8.500;2024-01-16T20:22:14;45.4;;;22.4;;
53674;SDS011;39574;50.534;8.500;2024-01-16T20:27:12;40.6;;;20.3;;
53674;SDS011;39574;50.534;8.500;2024-01-16T20:32:11;32.1;;;16.4;;
53674;SDS011;39574;50.534;8.500;2024-01-16T20:37:09;24.5;;;12.7;;
53674;SDS011;39574;50.534;8.500;2024-01-16T20:42:09;20.4;;;11.6;;
53674;SDS011;39574;50.534;8.500;2024-01-16T20:47:07;21.1;;;11.8;;
53674;SDS011;39574;50.534;8.500;2024-01-16T20:52:05;21.0;;;11.2;;
53674;SDS011;39574;50.534;8.500;2024-01-16T20:57:03;33.5;;;16.8;;
53674;SDS011;39574;50.534;8.500;2024-01-16T21:07:05;40.0;;;19.0;;
53674;SDS011;39574;50.534;8.500;2024-01-16T21:11:59;42.3;;;21.6;;
53674;SDS011;39574;50.534;8.500;2024-01-16T21:16:57;37.4;;;19.0;;
53674;SDS011;39574;50.534;8.500;2024-01-16T21:21:56;31.6;;;16.2;;
53674;SDS011;39574;50.534;8.500;2024-01-16T21:26:54;27.3;;;14.1;;
53674;SDS011;39574;50.534;8.500;2024-01-16T21:31:53;29.5;;;15.4;;
53674;SDS011;39574;50.534;8.500;2024-01-16T21:36:52;30.6;;;16.9;;
53674;SDS011;39574;50.534;8.500;2024-01-16T21:41:50;31.0;;;16.7;;
53674;SDS011;39574;50.534;8.500;2024-01-16T21:46:49;27.2;;;14.7;;
53674;SDS011;39574;50.534;8.500;2024-01-16T21:51:47;24.0;;;12.7;;
53674;SDS011;39574;50.534;8.500;2024-01-16T21:56:45;20.6;;;10.9;;
53674;SDS011;39574;50.534;8.500;2024-01-16T22:01:44;20.5;;;11.7;;
53674;SDS011;39574;50.534;8.500;2024-01-16T22:06:43;20.1;;;11.7;;
53674;SDS011;39574;50.534;8.500;2024-01-16T22:11:41;20.3;;;11.4;;
53674;SDS011;39574;50.534;8.500;2024-01-16T22:16:39;22.8;;;11.8;;
53674;SDS011;39574;50.534;8.500;2024-01-16T22:21:39;24.6;;;12.0;;
53674;SDS011;39574;50.534;8.500;2024-01-16T22:26:36;25.4;;;12.4;;
53674;SDS011;39574;50.534;8.500;2024-01-16T22:31:38;45.2;;;21.3;;
53674;SDS011;39574;50.534;8.500;2024-01-16T22:36:37;53.2;;;24.5;;
53674;SDS011;39574;50.534;8.500;2024-01-16T22:41:32;43.6;;;20.8;;
53674;SDS011;39574;50.534;8.500;2024-01-16T22:46:31;36.3;;;17.9;;
53674;SDS011;39574;50.534;8.500;2024-01-16T22:51:29;27.5;;;13.8;;
53674;SDS011;39574;50.534;8.500;2024-01-16T22:56:28;21.4;;;11.2;;
53674;SDS011;39574;50.534;8.500;2024-01-16T23:01:26;19.3;;;10.1;;
53674;SDS011;39574;50.534;8.500;2024-01-16T23:06:24;18.8;;;9.8;;
53674;SDS011;39574;50.534;8.500;2024-01-16T23:16:21;18.6;;;9.9;;
53674;SDS011;39574;50.534;8.500;2024-01-16T23:21:19;18.6;;;9.8;;
53674;SDS011;39574;50.534;8.500;2024-01-16T23:26:18;19.1;;;10.0;;
53674;SDS011;39574;50.534;8.500;2024-01-16T23:36:15;18.2;;;9.6;;
53674;SDS011;39574;50.534;8.500;2024-01-16T23:41:14;18.1;;;9.7;;
53674;SDS011;39574;50.534;8.500;2024-01-16T23:46:12;17.8;;;9.6;;
53674;SDS011;39574;50.534;8.500;2024-01-16T23:51:11;18.5;;;9.9;;
53674;SDS011;39574;50.534;8.500;2024-01-16T23:56:09;21.1;;;11.3;;
